createdAt,value
2023-05-09T00:02:09.560Z,59.20
2023-05-09T00:04:37.806Z,58.90
2023-05-09T00:07:05.026Z,58.90
2023-05-09T00:09:32.309Z,59.20
2023-05-09T00:12:00.117Z,59.40
2023-05-09T00:14:27.428Z,59.50
2023-05-09T00:16:54.910Z,59.50
2023-05-09T00:19:22.258Z,59.90
2023-05-09T00:21:49.401Z,60.00
2023-05-09T00:24:17.061Z,60.10
2023-05-09T00:26:44.196Z,60.10
2023-05-09T00:29:11.360Z,59.80
2023-05-09T00:31:38.636Z,59.80
2023-05-09T00:34:05.897Z,60.00
2023-05-09T00:36:33.144Z,60.00
2023-05-09T00:39:00.451Z,60.30
2023-05-09T00:41:27.609Z,60.70
2023-05-09T00:43:55.419Z,61.10
2023-05-09T00:46:23.048Z,61.30
2023-05-09T00:48:50.304Z,60.90
2023-05-09T00:51:17.986Z,61.00
2023-05-09T00:53:46.010Z,61.30
2023-05-09T00:56:15.547Z,61.40
2023-05-09T00:58:44.014Z,61.50
2023-05-09T01:01:11.320Z,61.80
2023-05-09T01:03:39.770Z,62.00
2023-05-09T01:06:17.774Z,62.60
2023-05-09T01:08:52.552Z,62.90
2023-05-09T01:11:39.205Z,62.90
2023-05-09T01:14:37.839Z,63.00
2023-05-09T01:17:15.993Z,63.00
2023-05-09T01:19:58.261Z,63.40
2023-05-09T01:22:35.742Z,63.60
2023-05-09T01:25:27.631Z,63.80
2023-05-09T01:28:14.203Z,64.20
2023-05-09T01:30:45.764Z,64.20
2023-05-09T01:33:17.796Z,64.30
2023-05-09T01:35:54.009Z,64.30
2023-05-09T01:38:25.154Z,64.50
2023-05-09T01:40:54.786Z,64.80
2023-05-09T01:43:25.096Z,65.20
2023-05-09T01:45:53.616Z,65.60
2023-05-09T01:48:22.108Z,65.90
2023-05-09T01:50:49.647Z,65.80
2023-05-09T01:53:17.685Z,66.10
2023-05-09T01:55:46.956Z,67.60
2023-05-09T01:58:15.776Z,68.10
2023-05-09T02:00:43.892Z,67.90
2023-05-09T02:03:11.576Z,68.30
2023-05-09T02:05:40.138Z,68.50
2023-05-09T02:08:09.069Z,68.90
2023-05-09T02:10:37.622Z,69.30
2023-05-09T02:13:05.708Z,69.50
2023-05-09T02:15:33.684Z,69.50
2023-05-09T02:18:01.496Z,70.00
2023-05-09T02:20:29.342Z,70.70
2023-05-09T02:22:57.020Z,71.10
2023-05-09T02:25:24.652Z,71.50
2023-05-09T02:27:53.421Z,71.60
2023-05-09T02:30:25.372Z,71.50
2023-05-09T02:32:58.520Z,71.90
2023-05-09T02:35:27.787Z,72.40
2023-05-09T02:37:56.853Z,72.70
2023-05-09T02:40:26.161Z,73.10
2023-05-09T02:42:54.647Z,73.20
2023-05-09T02:45:22.167Z,73.40
2023-05-09T02:47:49.522Z,73.40
2023-05-09T02:50:16.871Z,73.60
2023-05-09T02:52:44.822Z,73.70
2023-05-09T02:55:12.407Z,74.30
2023-05-09T02:57:41.548Z,74.40
2023-05-09T03:00:09.688Z,74.70
2023-05-09T03:02:38.294Z,74.80
2023-05-09T03:05:09.568Z,75.10
2023-05-09T03:07:37.474Z,74.80
2023-05-09T03:10:05.154Z,75.10
2023-05-09T03:12:32.448Z,75.20
2023-05-09T03:15:01.109Z,75.30
2023-05-09T03:17:28.619Z,75.60
2023-05-09T03:19:55.988Z,76.00
2023-05-09T03:22:23.250Z,76.50
2023-05-09T03:24:57.473Z,76.70
2023-05-09T03:27:26.120Z,77.20
2023-05-09T03:29:55.165Z,77.60
2023-05-09T03:32:22.693Z,78.30
2023-05-09T03:34:49.955Z,78.40
2023-05-09T03:37:17.425Z,78.80
2023-05-09T03:39:45.660Z,79.60
2023-05-09T03:42:12.859Z,80.50
2023-05-09T03:44:41.619Z,81.00
2023-05-09T03:47:08.795Z,81.60
2023-05-09T03:49:39.862Z,82.40
2023-05-09T03:52:08.974Z,82.50
2023-05-09T03:54:36.928Z,82.70
2023-05-09T03:57:05.399Z,83.10
2023-05-09T03:59:32.595Z,83.40
2023-05-09T04:02:00.720Z,83.70
2023-05-09T04:04:27.978Z,83.90
2023-05-09T04:06:56.058Z,84.20
2023-05-09T04:09:23.426Z,84.10
2023-05-09T04:11:51.207Z,84.40
2023-05-09T04:14:19.040Z,84.80
2023-05-09T04:16:46.536Z,85.30
2023-05-09T04:19:13.869Z,85.40
2023-05-09T04:21:41.122Z,85.80
2023-05-09T04:24:08.997Z,85.80
2023-05-09T04:26:41.709Z,85.90
2023-05-09T04:29:12.433Z,85.80
2023-05-09T04:31:40.006Z,86.00
2023-05-09T04:34:09.961Z,86.20
2023-05-09T04:36:39.258Z,86.10
2023-05-09T04:39:07.957Z,86.90
2023-05-09T04:41:36.254Z,87.70
2023-05-09T04:44:03.477Z,88.40
2023-05-09T04:46:55.717Z,88.30
2023-05-09T04:49:23.527Z,89.20
2023-05-09T04:51:53.751Z,89.20
2023-05-09T04:54:21.377Z,88.90
2023-05-09T04:56:53.251Z,89.10
2023-05-09T04:59:23.637Z,89.50
2023-05-09T05:01:50.922Z,89.00
2023-05-09T05:04:21.927Z,88.60
2023-05-09T05:06:49.461Z,88.40
2023-05-09T05:09:16.933Z,88.10
2023-05-09T05:11:57.133Z,88.90
2023-05-09T05:14:27.419Z,88.70
2023-05-09T05:16:55.708Z,88.20
2023-05-09T05:19:24.066Z,88.00
2023-05-09T05:21:51.242Z,88.20
2023-05-09T05:24:18.660Z,88.00
2023-05-09T05:26:46.604Z,88.20
2023-05-09T05:29:13.774Z,87.80
2023-05-09T05:31:41.232Z,86.90
2023-05-09T05:34:09.034Z,86.80
2023-05-09T05:36:36.412Z,86.80
2023-05-09T05:39:04.324Z,86.40
2023-05-09T05:41:31.507Z,86.10
2023-05-09T05:43:59.498Z,85.60
2023-05-09T05:46:27.362Z,85.50
2023-05-09T05:48:56.546Z,85.70
2023-05-09T05:51:24.720Z,85.50
2023-05-09T05:53:52.030Z,85.30
2023-05-09T05:56:19.570Z,85.00
2023-05-09T05:58:46.929Z,84.40
2023-05-09T06:01:16.900Z,84.30
2023-05-09T06:03:44.184Z,84.40
2023-05-09T06:06:11.933Z,84.20
2023-05-09T06:08:39.620Z,84.00
2023-05-09T06:11:07.474Z,83.30
2023-05-09T06:13:35.224Z,82.80
2023-05-09T06:16:18.790Z,82.20
2023-05-09T06:18:49.114Z,81.60
2023-05-09T06:21:16.330Z,80.70
2023-05-09T06:23:57.879Z,80.50
2023-05-09T06:26:29.859Z,80.40
2023-05-09T06:28:57.100Z,79.20
2023-05-09T06:31:25.677Z,78.00
2023-05-09T06:33:53.537Z,76.20
2023-05-09T06:36:20.757Z,73.50
2023-05-09T06:38:47.925Z,70.00
2023-05-09T06:41:15.720Z,66.10
2023-05-09T06:43:42.898Z,61.90
2023-05-09T06:46:10.316Z,58.20
2023-05-09T06:48:37.959Z,55.50
2023-05-09T06:51:05.373Z,53.70
2023-05-09T06:53:32.525Z,51.80
2023-05-09T06:55:59.745Z,50.30
2023-05-09T06:58:27.993Z,49.40
2023-05-09T07:00:55.924Z,49.10
2023-05-09T07:03:23.266Z,48.20
2023-05-09T07:05:51.690Z,48.10
2023-05-09T07:08:18.900Z,47.10
2023-05-09T07:10:46.130Z,46.10
2023-05-09T07:13:13.671Z,45.20
2023-05-09T07:15:42.734Z,45.10
2023-05-09T07:18:16.727Z,44.10
2023-05-09T07:20:46.916Z,43.60
2023-05-09T07:23:14.659Z,42.90
2023-05-09T07:25:43.734Z,42.10
2023-05-09T07:28:12.684Z,41.90
2023-05-09T07:30:39.926Z,41.40
2023-05-09T07:33:08.176Z,42.90
2023-05-09T07:35:35.476Z,42.50
2023-05-09T07:38:02.639Z,43.00
2023-05-09T07:40:29.848Z,43.50
2023-05-09T07:42:57.106Z,43.70
2023-05-09T07:45:24.323Z,43.70
2023-05-09T07:47:51.546Z,44.20
2023-05-09T07:50:18.788Z,45.40
2023-05-09T07:52:46.155Z,46.80
2023-05-09T07:55:13.971Z,48.50
2023-05-09T07:57:41.405Z,46.90
2023-05-09T08:00:10.529Z,45.00
2023-05-09T08:02:40.991Z,44.20
2023-05-09T08:05:11.263Z,44.00
2023-05-09T08:07:39.251Z,44.00
2023-05-09T08:10:07.235Z,43.40
2023-05-09T08:12:34.490Z,44.80
2023-05-09T08:15:02.013Z,44.60
2023-05-09T08:17:29.685Z,43.70
2023-05-09T08:19:56.875Z,45.00
2023-05-09T08:22:24.670Z,44.40
2023-05-09T08:24:51.862Z,43.60
2023-05-09T08:27:19.593Z,42.60
2023-05-09T08:29:46.848Z,41.80
2023-05-09T08:32:14.252Z,39.60
2023-05-09T08:34:41.555Z,38.80
2023-05-09T08:37:08.942Z,38.70
2023-05-09T08:39:36.880Z,38.60
2023-05-09T08:42:04.166Z,38.50
2023-05-09T08:44:32.214Z,38.20
2023-05-09T08:47:01.043Z,38.20
2023-05-09T08:49:29.177Z,38.20
2023-05-09T08:51:57.290Z,37.30
2023-05-09T08:54:26.055Z,36.90
2023-05-09T08:56:53.934Z,36.40
2023-05-09T08:59:21.869Z,37.00
2023-05-09T09:01:49.979Z,36.50
2023-05-09T09:04:17.324Z,36.60
2023-05-09T09:06:45.038Z,36.40
2023-05-09T09:09:13.723Z,36.20
2023-05-09T09:11:42.562Z,36.30
2023-05-09T09:14:16.575Z,35.20
2023-05-09T09:16:47.394Z,35.00
2023-05-09T09:19:17.534Z,35.10
2023-05-09T09:21:47.229Z,34.90
2023-05-09T09:24:18.675Z,34.90
2023-05-09T09:26:48.361Z,34.90
2023-05-09T09:29:17.260Z,34.20
2023-05-09T09:31:46.340Z,35.20
2023-05-09T09:34:20.711Z,33.40
2023-05-09T09:36:48.471Z,32.90
2023-05-09T09:39:16.019Z,32.30
2023-05-09T09:41:44.704Z,32.20
2023-05-09T09:44:17.396Z,32.20
2023-05-09T09:46:55.584Z,31.20
2023-05-09T09:49:24.794Z,31.20
2023-05-09T09:51:57.099Z,31.80
2023-05-09T09:54:27.779Z,30.30
2023-05-09T09:56:56.369Z,29.90
2023-05-09T09:59:27.831Z,30.10
2023-05-09T10:01:56.253Z,29.80
2023-05-09T10:04:24.388Z,29.90
2023-05-09T10:06:56.415Z,29.10
2023-05-09T10:09:25.660Z,29.40
2023-05-09T10:11:54.461Z,28.90
2023-05-09T10:14:26.207Z,29.80
2023-05-09T10:16:57.768Z,29.20
2023-05-09T10:19:29.886Z,29.10
2023-05-09T10:22:00.816Z,28.90
2023-05-09T10:24:44.284Z,29.50
2023-05-09T10:27:12.683Z,29.30
2023-05-09T10:29:51.558Z,28.60
2023-05-09T10:32:27.678Z,28.20
2023-05-09T10:35:01.217Z,28.40
2023-05-09T10:37:29.590Z,29.20
2023-05-09T10:39:58.006Z,28.30
2023-05-09T10:42:25.647Z,28.10
2023-05-09T10:44:53.457Z,28.00
2023-05-09T10:47:22.111Z,28.60
2023-05-09T10:49:50.338Z,28.00
2023-05-09T10:52:18.808Z,27.90
2023-05-09T10:54:59.141Z,27.90
2023-05-09T10:57:28.548Z,28.00
2023-05-09T10:59:57.460Z,27.90
2023-05-09T11:02:34.162Z,28.00
2023-05-09T11:05:18.037Z,27.70
2023-05-09T11:07:45.593Z,28.00
2023-05-09T11:10:18.048Z,27.90
2023-05-09T11:12:59.454Z,28.40
2023-05-09T11:15:27.866Z,28.30
2023-05-09T11:18:09.828Z,28.10
2023-05-09T11:20:43.707Z,27.90
2023-05-09T11:23:15.738Z,27.70
2023-05-09T11:25:47.297Z,27.60
2023-05-09T11:28:32.249Z,27.40
2023-05-09T11:31:28.929Z,27.60
2023-05-09T11:34:04.170Z,28.30
2023-05-09T11:36:33.392Z,28.00
2023-05-09T11:39:10.562Z,28.00
2023-05-09T11:41:41.313Z,28.20
2023-05-09T11:44:14.118Z,28.30
2023-05-09T11:46:41.930Z,27.60
2023-05-09T11:49:12.016Z,27.60
2023-05-09T11:51:39.957Z,27.60
2023-05-09T11:54:10.473Z,27.60
2023-05-09T11:56:40.071Z,27.60
2023-05-09T11:59:07.831Z,27.80
2023-05-09T12:01:36.075Z,27.60
2023-05-09T12:04:06.952Z,27.90
2023-05-09T12:06:34.260Z,27.50
2023-05-09T12:09:01.469Z,27.70
2023-05-09T12:11:32.077Z,28.00
2023-05-09T12:13:59.397Z,26.70
2023-05-09T12:16:26.793Z,27.30
2023-05-09T12:18:54.715Z,27.40
2023-05-09T12:21:22.356Z,27.80
2023-05-09T12:23:52.391Z,27.40
2023-05-09T12:26:22.625Z,27.40
2023-05-09T12:28:50.637Z,28.10
2023-05-09T12:31:18.733Z,28.00
2023-05-09T12:33:46.792Z,27.70
2023-05-09T12:36:15.389Z,27.90
2023-05-09T12:38:54.128Z,28.60
2023-05-09T12:43:57.736Z,28.10
2023-05-09T12:46:25.618Z,27.50
2023-05-09T12:48:52.929Z,28.00
2023-05-09T12:51:21.534Z,27.90
2023-05-09T12:53:49.232Z,27.80
2023-05-09T12:56:20.807Z,27.80
2023-05-09T12:58:50.113Z,27.80
2023-05-09T13:01:18.243Z,27.70
2023-05-09T13:03:52.221Z,28.10
2023-05-09T13:06:20.969Z,27.90
2023-05-09T13:08:58.956Z,27.70
2023-05-09T13:11:26.916Z,28.30
2023-05-09T13:13:55.153Z,28.30
2023-05-09T13:16:22.509Z,28.20
2023-05-09T13:18:49.714Z,28.50
2023-05-09T13:21:17.403Z,28.30
2023-05-09T13:23:45.428Z,28.70
2023-05-09T13:26:12.980Z,29.10
2023-05-09T13:28:40.462Z,29.50
2023-05-09T13:31:08.280Z,29.60
2023-05-09T13:33:36.210Z,29.00
2023-05-09T13:36:04.315Z,29.00
2023-05-09T13:38:32.152Z,29.70
2023-05-09T13:41:00.322Z,29.40
2023-05-09T13:43:27.607Z,29.00
2023-05-09T13:45:55.711Z,29.10
2023-05-09T13:48:22.919Z,29.20
2023-05-09T13:50:50.760Z,28.70
2023-05-09T13:53:17.986Z,28.80
2023-05-09T13:55:46.246Z,29.50
2023-05-09T13:58:13.692Z,30.00
2023-05-09T14:00:41.778Z,29.40
2023-05-09T14:03:09.224Z,28.50
2023-05-09T14:05:36.768Z,28.60
2023-05-09T14:08:04.249Z,28.60
2023-05-09T14:10:31.442Z,28.40
2023-05-09T14:12:59.419Z,28.10
2023-05-09T14:15:27.368Z,27.80
2023-05-09T14:17:54.555Z,27.70
2023-05-09T14:20:21.740Z,28.30
2023-05-09T14:22:48.973Z,29.50
2023-05-09T14:25:16.282Z,28.60
2023-05-09T14:27:43.443Z,28.90
2023-05-09T14:30:11.244Z,28.40
2023-05-09T14:32:38.464Z,28.90
2023-05-09T14:35:06.212Z,28.90
2023-05-09T14:37:33.600Z,29.20
2023-05-09T14:40:05.343Z,29.20
2023-05-09T14:42:33.113Z,29.60
2023-05-09T14:45:00.299Z,29.40
2023-05-09T14:47:27.598Z,30.30
2023-05-09T14:49:55.120Z,30.90
2023-05-09T14:52:22.269Z,31.10
2023-05-09T14:54:49.477Z,31.50
2023-05-09T14:57:17.187Z,31.90
2023-05-09T14:59:44.365Z,33.20
2023-05-09T15:02:11.516Z,34.00
2023-05-09T15:04:40.803Z,35.10
2023-05-09T15:07:08.243Z,39.30
2023-05-09T15:09:35.453Z,33.80
2023-05-09T15:12:02.932Z,33.70
2023-05-09T15:14:30.089Z,34.90
2023-05-09T15:17:01.086Z,35.60
2023-05-09T15:19:31.430Z,35.00
2023-05-09T15:21:59.780Z,35.50
2023-05-09T15:24:26.970Z,35.90
2023-05-09T15:26:54.203Z,36.30
2023-05-09T15:29:24.431Z,36.60
2023-05-09T15:31:51.772Z,37.20
2023-05-09T15:34:18.988Z,37.70
2023-05-09T15:36:46.573Z,38.50
2023-05-09T15:39:13.888Z,39.00
2023-05-09T15:41:41.060Z,39.10
2023-05-09T15:44:08.333Z,39.80
2023-05-09T15:46:35.566Z,40.00
2023-05-09T15:49:03.423Z,40.30
2023-05-09T15:51:31.455Z,40.30
2023-05-09T15:53:58.622Z,40.50
2023-05-09T15:56:26.889Z,40.70
2023-05-09T15:58:54.046Z,41.50
2023-05-09T16:01:24.624Z,41.60
2023-05-09T16:03:51.960Z,42.30
2023-05-09T16:06:19.948Z,42.40
2023-05-09T16:08:47.533Z,42.50
2023-05-09T16:11:14.679Z,43.20
2023-05-09T16:13:41.923Z,43.70
2023-05-09T16:16:09.345Z,43.50
2023-05-09T16:18:36.958Z,44.10
2023-05-09T16:21:04.442Z,44.60
2023-05-09T16:23:32.395Z,45.50
2023-05-09T16:25:59.549Z,45.10
2023-05-09T16:28:28.029Z,45.10
2023-05-09T16:30:55.633Z,45.00
2023-05-09T16:33:23.145Z,45.50
2023-05-09T16:35:50.410Z,45.20
2023-05-09T16:38:19.295Z,45.50
2023-05-09T16:40:46.611Z,45.90
2023-05-09T16:43:16.282Z,46.20
2023-05-09T16:45:43.772Z,46.30
2023-05-09T16:48:10.975Z,46.90
2023-05-09T16:50:38.494Z,47.20
2023-05-09T16:58:01.314Z,47.40
2023-05-09T17:00:33.781Z,48.00
2023-05-09T17:03:01.393Z,48.00
2023-05-09T17:05:28.790Z,48.30
2023-05-09T17:07:55.956Z,48.40
2023-05-09T17:10:23.465Z,48.50
2023-05-09T17:12:51.066Z,48.50
2023-05-09T17:15:18.491Z,49.00
2023-05-09T17:17:48.915Z,49.40
2023-05-09T17:20:16.366Z,49.60
2023-05-09T17:22:44.413Z,49.90
2023-05-09T17:25:11.638Z,49.70
2023-05-09T17:27:41.444Z,49.40
2023-05-09T17:30:09.388Z,49.50
2023-05-09T17:32:36.645Z,49.80
2023-05-09T17:35:04.736Z,50.20
2023-05-09T17:37:31.976Z,50.00
2023-05-09T17:39:59.144Z,50.20
2023-05-09T17:42:26.908Z,50.40
2023-05-09T17:44:54.854Z,50.40
2023-05-09T17:47:22.567Z,50.50
2023-05-09T17:49:50.496Z,50.30
2023-05-09T17:52:17.738Z,50.50
2023-05-09T17:54:45.592Z,50.70
2023-05-09T17:57:12.944Z,50.80
2023-05-09T17:59:41.637Z,50.80
2023-05-09T18:02:09.051Z,51.10
2023-05-09T18:04:36.944Z,51.10
2023-05-09T18:07:06.145Z,51.30
2023-05-09T18:09:33.506Z,51.30
2023-05-09T18:12:01.463Z,51.50
2023-05-09T18:14:28.787Z,51.20
2023-05-09T18:16:56.607Z,51.00
2023-05-09T18:19:23.920Z,50.10
2023-05-09T18:21:51.230Z,49.30
2023-05-09T18:24:20.381Z,49.30
2023-05-09T18:26:50.897Z,49.40
2023-05-09T18:29:18.525Z,49.50
2023-05-09T18:31:45.988Z,49.60
2023-05-09T18:34:13.978Z,49.50
2023-05-09T18:36:41.908Z,49.50
2023-05-09T18:39:11.641Z,49.50
2023-05-09T18:41:38.993Z,49.90
2023-05-09T18:44:07.114Z,49.40
2023-05-09T18:46:34.546Z,49.10
2023-05-09T18:49:03.810Z,48.60
2023-05-09T18:51:31.540Z,48.40
2023-05-09T18:53:58.871Z,48.50
2023-05-09T18:56:26.226Z,48.40
2023-05-09T18:58:53.630Z,47.50
2023-05-09T19:01:21.093Z,47.50
2023-05-09T19:03:53.897Z,47.50
2023-05-09T19:06:21.903Z,47.20
2023-05-09T19:08:49.537Z,46.40
2023-05-09T19:11:17.008Z,46.40
2023-05-09T19:13:48.863Z,46.50
2023-05-09T19:16:18.619Z,46.70
2023-05-09T19:18:46.479Z,46.40
2023-05-09T19:21:15.573Z,46.50
2023-05-09T19:23:44.521Z,46.50
2023-05-09T19:26:11.816Z,46.50
2023-05-09T19:28:39.657Z,46.50
2023-05-09T19:31:07.032Z,46.70
2023-05-09T19:33:34.386Z,46.90
2023-05-09T19:36:01.728Z,46.90
2023-05-09T19:38:30.940Z,46.50
2023-05-09T19:40:59.132Z,46.50
2023-05-09T19:43:26.509Z,46.60
2023-05-09T19:45:53.860Z,46.60
2023-05-09T19:48:21.204Z,47.00
2023-05-09T19:50:48.688Z,47.00
2023-05-09T19:53:16.126Z,47.30
2023-05-09T19:55:46.743Z,47.20
2023-05-09T19:58:17.456Z,47.40
2023-05-09T20:00:45.961Z,46.80
2023-05-09T20:03:13.948Z,46.70
2023-05-09T20:05:41.695Z,46.90
2023-05-09T20:08:09.443Z,46.70
2023-05-09T20:10:36.859Z,46.50
2023-05-09T20:13:04.458Z,46.80
2023-05-09T20:15:32.975Z,46.70
2023-05-09T20:18:03.558Z,47.00
2023-05-09T20:20:33.078Z,47.20
2023-05-09T20:23:00.581Z,47.50
2023-05-09T20:25:27.939Z,47.60
2023-05-09T20:27:55.259Z,47.80
2023-05-09T20:30:22.742Z,48.20
2023-05-09T20:32:50.713Z,48.70
2023-05-09T20:35:18.437Z,48.60
2023-05-09T20:37:45.752Z,48.80
2023-05-09T20:40:13.820Z,48.90
2023-05-09T20:42:41.778Z,48.50
2023-05-09T20:45:10.196Z,48.70
2023-05-09T20:47:37.578Z,48.60
2023-05-09T20:50:05.348Z,48.60
2023-05-09T20:52:32.785Z,48.30
2023-05-09T20:55:00.234Z,48.20
2023-05-09T20:57:27.587Z,48.20
2023-05-09T20:59:54.809Z,48.20
2023-05-09T21:02:22.697Z,48.20
2023-05-09T21:04:50.647Z,48.50
2023-05-09T21:07:20.822Z,48.40
2023-05-09T21:09:48.117Z,48.40
2023-05-09T21:12:15.902Z,48.00
2023-05-09T21:14:44.615Z,47.90
2023-05-09T21:17:12.111Z,47.30
2023-05-09T21:19:39.421Z,47.40
2023-05-09T21:22:06.610Z,47.10
2023-05-09T21:24:34.234Z,47.30
2023-05-09T21:27:01.413Z,47.10
2023-05-09T21:29:28.983Z,46.80
2023-05-09T21:31:56.172Z,46.70
2023-05-09T21:34:23.726Z,46.40
2023-05-09T21:36:50.872Z,46.30
2023-05-09T21:39:18.271Z,46.60
2023-05-09T21:41:45.542Z,46.40
2023-05-09T21:44:13.072Z,46.30
2023-05-09T21:46:41.084Z,46.30
2023-05-09T21:49:08.339Z,46.50
2023-05-09T21:51:35.755Z,46.40
2023-05-09T21:54:03.081Z,46.60
2023-05-09T21:56:30.367Z,46.40
2023-05-09T21:58:57.561Z,46.40
2023-05-09T22:01:24.832Z,46.40
2023-05-09T22:03:52.678Z,46.00
2023-05-09T22:06:19.940Z,46.10
2023-05-09T22:08:47.109Z,46.30
2023-05-09T22:11:14.940Z,46.50
2023-05-09T22:13:43.424Z,46.50
2023-05-09T22:16:10.758Z,46.40
2023-05-09T22:18:37.918Z,46.80
2023-05-09T22:21:05.485Z,46.80
2023-05-09T22:23:32.754Z,46.80
2023-05-09T22:25:59.979Z,47.00
2023-05-09T22:28:29.084Z,47.30
2023-05-09T22:30:56.233Z,47.50
2023-05-09T22:33:23.371Z,47.70
2023-05-09T22:35:50.999Z,48.10
2023-05-09T22:38:18.167Z,48.30
2023-05-09T22:40:45.406Z,48.40
2023-05-09T22:43:12.953Z,48.80
2023-05-09T22:45:40.265Z,49.30
2023-05-09T22:48:07.695Z,49.90
2023-05-09T22:50:35.118Z,50.20
2023-05-09T22:53:02.309Z,50.70
2023-05-09T22:55:29.881Z,51.20
2023-05-09T22:57:57.114Z,51.40
2023-05-09T23:00:24.867Z,51.50
2023-05-09T23:02:52.548Z,51.70
2023-05-09T23:05:20.617Z,51.90
2023-05-09T23:07:47.772Z,52.30
2023-05-09T23:10:15.297Z,52.80
2023-05-09T23:12:46.132Z,53.00
2023-05-09T23:15:13.349Z,53.40
2023-05-09T23:17:40.534Z,53.80
2023-05-09T23:20:08.650Z,54.00
2023-05-09T23:22:35.802Z,54.30
2023-05-09T23:25:03.245Z,54.40
2023-05-09T23:27:31.227Z,54.70
2023-05-09T23:29:59.075Z,54.80
2023-05-09T23:32:26.962Z,54.50
2023-05-09T23:34:54.172Z,54.30
2023-05-09T23:37:21.871Z,54.40
2023-05-09T23:39:49.015Z,54.40
2023-05-09T23:42:16.408Z,54.60
2023-05-09T23:44:43.807Z,54.30
2023-05-09T23:47:11.119Z,54.50
2023-05-09T23:49:38.328Z,54.80
2023-05-09T23:52:06.498Z,55.00
2023-05-09T23:54:34.271Z,55.70
2023-05-09T23:57:01.435Z,55.80
2023-05-09T23:59:28.579Z,56.10
